createdAt,value
2023-03-03T00:01:25.370Z,98653.88
2023-03-03T00:04:26.877Z,98652.22
2023-03-03T00:07:28.417Z,98660.78
2023-03-03T00:10:29.969Z,98656.34
2023-03-03T00:13:32.109Z,98659.44
2023-03-03T00:16:40.665Z,98655.06
2023-03-03T00:19:42.285Z,98652.56
2023-03-03T00:22:43.905Z,98667.88
2023-03-03T00:25:45.837Z,98665.13
2023-03-03T00:28:48.713Z,98673.53
2023-03-03T00:31:50.210Z,98675.38
2023-03-03T00:34:53.130Z,98674.34
2023-03-03T00:37:56.493Z,98674.94
2023-03-03T00:40:57.975Z,98672.88
2023-03-03T00:43:59.487Z,98678.06
2023-03-03T00:47:11.252Z,98673.00
2023-03-03T00:50:12.558Z,98674.41
2023-03-03T00:53:17.218Z,98675.34
2023-03-03T00:56:18.737Z,98683.59
2023-03-03T00:59:20.303Z,98676.59
2023-03-03T01:02:21.867Z,98685.31
2023-03-03T01:05:23.376Z,98683.81
2023-03-03T01:08:24.874Z,98678.66
2023-03-03T01:11:26.666Z,98669.00
2023-03-03T01:14:28.220Z,98664.16
2023-03-03T01:17:29.749Z,98662.22
2023-03-03T01:20:31.225Z,98669.28
2023-03-03T01:23:32.836Z,98659.00
2023-03-03T01:26:34.326Z,98666.53
2023-03-03T01:29:35.830Z,98658.72
2023-03-03T01:32:37.369Z,98658.50
2023-03-03T01:35:43.863Z,98649.13
2023-03-03T01:38:45.400Z,98648.25
2023-03-03T01:41:46.928Z,98651.66
2023-03-03T01:44:48.447Z,98660.38
2023-03-03T01:48:03.292Z,98654.13
2023-03-03T01:51:26.297Z,98656.16
2023-03-03T01:54:34.202Z,98653.81
2023-03-03T01:57:38.272Z,98646.69
2023-03-03T02:00:41.360Z,98637.13
2023-03-03T02:03:43.656Z,98644.59
2023-03-03T02:06:47.988Z,98630.94
2023-03-03T02:09:57.237Z,98626.44
2023-03-03T02:12:59.914Z,98629.91
2023-03-03T02:16:01.424Z,98626.59
2023-03-03T02:19:04.834Z,98633.28
2023-03-03T02:22:06.321Z,98632.63
2023-03-03T02:25:08.543Z,98638.22
2023-03-03T02:28:10.113Z,98630.28
2023-03-03T02:31:15.585Z,98624.34
2023-03-03T02:34:17.712Z,98625.94
2023-03-03T02:37:19.398Z,98626.69
2023-03-03T02:40:20.922Z,98623.06
2023-03-03T02:43:22.670Z,98626.63
2023-03-03T02:46:24.208Z,98618.41
2023-03-03T02:49:32.090Z,98611.69
2023-03-03T02:52:33.565Z,98621.81
2023-03-03T02:55:35.067Z,98618.97
2023-03-03T02:58:37.098Z,98610.56
2023-03-03T03:01:38.704Z,98612.25
2023-03-03T03:04:40.291Z,98609.41
2023-03-03T03:07:41.873Z,98615.19
2023-03-03T03:10:43.411Z,98618.41
2023-03-03T03:13:45.088Z,98619.22
2023-03-03T03:16:46.621Z,98621.91
2023-03-03T03:19:48.144Z,98626.16
2023-03-03T03:22:49.680Z,98629.38
2023-03-03T03:25:51.169Z,98642.47
2023-03-03T03:28:52.767Z,98637.59
2023-03-03T03:31:54.309Z,98638.59
2023-03-03T03:34:55.814Z,98636.41
2023-03-03T03:37:57.349Z,98634.53
2023-03-03T03:40:58.905Z,98638.59
2023-03-03T03:44:00.373Z,98631.94
2023-03-03T03:47:01.893Z,98631.94
2023-03-03T03:50:03.585Z,98643.25
2023-03-03T03:53:05.955Z,98637.53
2023-03-03T03:56:07.750Z,98640.31
2023-03-03T03:59:09.243Z,98637.91
2023-03-03T04:02:10.908Z,98629.34
2023-03-03T04:05:12.514Z,98636.31
2023-03-03T04:08:14.000Z,98640.81
2023-03-03T04:11:15.518Z,98639.06
2023-03-03T04:14:17.019Z,98650.09
2023-03-03T04:17:22.306Z,98644.97
2023-03-03T04:20:23.787Z,98644.31
2023-03-03T04:23:25.263Z,98647.69
2023-03-03T04:26:26.890Z,98645.94
2023-03-03T04:29:28.368Z,98647.06
2023-03-03T04:32:30.462Z,98647.25
2023-03-03T04:35:32.008Z,98641.97
2023-03-03T04:38:33.510Z,98633.09
2023-03-03T04:41:35.324Z,98632.00
2023-03-03T04:44:36.930Z,98636.06
2023-03-03T04:47:38.411Z,98628.03
2023-03-03T04:50:39.889Z,98627.50
2023-03-03T04:53:41.406Z,98631.44
2023-03-03T04:56:42.955Z,98627.09
2023-03-03T04:59:44.586Z,98632.91
2023-03-03T05:02:47.472Z,98633.91
2023-03-03T05:05:48.965Z,98630.19
2023-03-03T05:08:50.486Z,98634.84
2023-03-03T05:11:51.993Z,98643.09
2023-03-03T05:14:53.465Z,98642.47
2023-03-03T05:17:56.454Z,98644.16
2023-03-03T05:20:58.178Z,98646.88
2023-03-03T05:23:59.662Z,98649.88
2023-03-03T05:27:01.129Z,98655.25
2023-03-03T05:30:02.926Z,98654.03
2023-03-03T05:33:05.048Z,98655.00
2023-03-03T05:36:06.901Z,98655.59
2023-03-03T05:39:08.427Z,98655.78
2023-03-03T05:42:11.309Z,98657.81
2023-03-03T05:45:13.009Z,98663.31
2023-03-03T05:48:14.538Z,98661.88
2023-03-03T05:51:16.011Z,98659.50
2023-03-03T05:54:17.533Z,98665.72
2023-03-03T05:57:19.055Z,98669.19
2023-03-03T06:00:20.859Z,98665.22
2023-03-03T06:03:22.496Z,98667.13
2023-03-03T06:06:24.022Z,98675.53
2023-03-03T06:09:26.308Z,98670.47
2023-03-03T06:12:27.850Z,98680.22
2023-03-03T06:15:29.398Z,98680.41
2023-03-03T06:18:30.990Z,98684.31
2023-03-03T06:21:32.489Z,98684.69
2023-03-03T06:24:34.301Z,98693.38
2023-03-03T06:27:35.795Z,98688.84
2023-03-03T06:30:37.324Z,98700.16
2023-03-03T06:33:38.999Z,98696.13
2023-03-03T06:36:40.471Z,98702.06
2023-03-03T06:39:41.984Z,98705.94
2023-03-03T06:42:43.468Z,98710.88
2023-03-03T06:45:45.616Z,98707.88
2023-03-03T06:48:47.178Z,98716.56
2023-03-03T06:51:48.702Z,98722.91
2023-03-03T06:54:51.078Z,98721.50
2023-03-03T06:57:55.791Z,98716.19
2023-03-03T07:00:58.161Z,98727.66
2023-03-03T07:03:59.712Z,98737.97
2023-03-03T07:07:10.700Z,98742.28
2023-03-03T07:10:27.886Z,98741.41
2023-03-03T07:13:29.853Z,98749.47
2023-03-03T07:16:31.410Z,98754.78
2023-03-03T07:19:36.050Z,98755.78
2023-03-03T07:22:37.518Z,98764.75
2023-03-03T07:25:39.063Z,98769.81
2023-03-03T07:29:14.383Z,98768.38
2023-03-03T07:32:18.841Z,98768.78
2023-03-03T07:35:41.026Z,98770.34
2023-03-03T07:38:42.736Z,98773.72
2023-03-03T07:41:44.225Z,98773.56
2023-03-03T07:44:48.775Z,98774.34
2023-03-03T07:47:50.257Z,98781.94
2023-03-03T07:50:51.969Z,98769.19
2023-03-03T07:53:55.272Z,98782.53
2023-03-03T07:56:59.201Z,98781.34
2023-03-03T08:00:19.128Z,98792.44
2023-03-03T08:03:20.838Z,98798.34
2023-03-03T08:06:47.193Z,98797.59
2023-03-03T08:09:56.751Z,98802.50
2023-03-03T08:12:58.744Z,98800.25
2023-03-03T08:16:09.561Z,98798.44
2023-03-03T08:19:11.316Z,98803.00
2023-03-03T08:22:40.474Z,98809.75
2023-03-03T08:25:42.460Z,98811.66
2023-03-03T08:28:43.965Z,98814.66
2023-03-03T08:31:45.488Z,98809.66
2023-03-03T08:34:46.997Z,98815.00
2023-03-03T08:37:48.466Z,98823.22
2023-03-03T08:40:50.136Z,98817.03
2023-03-03T08:43:51.797Z,98823.72
2023-03-03T08:46:53.257Z,98828.53
2023-03-03T08:49:54.875Z,98837.88
2023-03-03T08:52:56.505Z,98844.25
2023-03-03T08:55:58.219Z,98841.94
2023-03-03T08:59:03.320Z,98849.75
2023-03-03T09:02:06.309Z,98847.94
2023-03-03T09:05:08.341Z,98850.97
2023-03-03T09:08:10.724Z,98854.25
2023-03-03T09:11:13.015Z,98860.81
2023-03-03T09:14:15.913Z,98863.91
2023-03-03T09:17:28.644Z,98861.75
2023-03-03T09:20:43.954Z,98873.13
2023-03-03T09:23:53.291Z,98860.53
2023-03-03T09:26:55.125Z,98870.31
2023-03-03T09:30:25.908Z,98867.88
2023-03-03T09:33:33.366Z,98865.22
2023-03-03T09:36:38.577Z,98869.44
2023-03-03T09:39:40.068Z,98867.72
2023-03-03T09:43:04.675Z,98871.25
2023-03-03T09:46:24.453Z,98882.56
2023-03-03T09:49:45.301Z,98884.34
2023-03-03T09:52:50.699Z,98898.16
2023-03-03T09:56:13.780Z,98895.75
2023-03-03T09:59:39.744Z,98893.16
2023-03-03T10:02:47.366Z,98903.06
2023-03-03T10:06:11.820Z,98903.13
2023-03-03T10:09:28.473Z,98910.38
2023-03-03T10:12:36.805Z,98909.38
2023-03-03T10:15:47.780Z,98910.94
2023-03-03T10:19:02.312Z,98911.91
2023-03-03T10:22:09.720Z,98908.81
2023-03-03T10:25:22.544Z,98913.41
2023-03-03T10:28:31.487Z,98911.81
2023-03-03T10:31:54.948Z,98904.41
2023-03-03T10:35:08.533Z,98921.41
2023-03-03T10:38:31.182Z,98916.66
2023-03-03T10:41:44.239Z,98916.22
2023-03-03T10:44:51.768Z,98910.38
2023-03-03T10:48:03.290Z,98912.94
2023-03-03T10:51:17.888Z,98913.75
2023-03-03T10:54:43.407Z,98922.94
2023-03-03T10:58:12.825Z,98926.06
2023-03-03T11:01:39.318Z,98921.06
2023-03-03T11:04:52.682Z,98926.06
2023-03-03T11:08:26.010Z,98933.97
2023-03-03T11:11:42.033Z,98925.09
2023-03-03T11:14:49.130Z,98926.31
2023-03-03T11:18:09.436Z,98925.16
2023-03-03T11:21:22.635Z,98920.28
2023-03-03T11:24:31.168Z,98927.72
2023-03-03T11:27:55.578Z,98932.19
2023-03-03T11:31:14.187Z,98926.97
2023-03-03T11:34:15.611Z,98921.72
2023-03-03T11:37:20.156Z,98915.75
2023-03-03T11:40:36.317Z,98913.41
2023-03-03T11:43:46.765Z,98910.78
2023-03-03T11:47:39.911Z,98903.00
2023-03-03T11:50:47.570Z,98904.88
2023-03-03T11:54:08.778Z,98902.75
2023-03-03T11:57:27.209Z,98896.28
2023-03-03T12:00:34.683Z,98894.75
2023-03-03T12:03:45.490Z,98894.28
2023-03-03T12:07:18.412Z,98881.94
2023-03-03T12:10:53.071Z,98888.28
2023-03-03T12:14:16.984Z,98890.34
2023-03-03T12:17:56.133Z,98890.13
2023-03-03T12:21:16.399Z,98889.16
2023-03-03T12:24:24.460Z,98886.81
2023-03-03T12:27:44.685Z,98893.06
2023-03-03T12:31:18.218Z,98895.81
2023-03-03T12:34:44.269Z,98887.22
2023-03-03T12:38:23.172Z,98880.38
2023-03-03T12:41:33.711Z,98891.63
2023-03-03T12:44:42.744Z,98880.38
2023-03-03T12:47:49.180Z,98880.53
2023-03-03T12:51:25.554Z,98876.13
2023-03-03T12:54:36.986Z,98879.28
2023-03-03T12:58:12.717Z,98877.69
2023-03-03T13:01:33.805Z,98877.22
2023-03-03T13:04:39.253Z,98876.47
2023-03-03T13:07:55.358Z,98878.47
2023-03-03T13:11:01.849Z,98875.53
2023-03-03T13:14:41.148Z,98873.03
2023-03-03T13:17:58.457Z,98874.91
2023-03-03T13:21:01.824Z,98871.66
2023-03-03T13:24:16.089Z,98868.97
2023-03-03T13:27:19.163Z,98865.06
2023-03-03T13:30:23.283Z,98862.56
2023-03-03T13:33:29.237Z,98850.16
2023-03-03T13:36:35.327Z,98860.81
2023-03-03T13:39:45.214Z,98859.25
2023-03-03T13:42:55.697Z,98854.91
2023-03-03T13:45:59.754Z,98856.78
2023-03-03T13:49:17.057Z,98848.19
2023-03-03T13:52:22.953Z,98850.53
2023-03-03T13:55:41.831Z,98849.16
2023-03-03T13:58:46.280Z,98855.22
2023-03-03T14:01:55.794Z,98842.75
2023-03-03T14:05:37.124Z,98844.44
2023-03-03T14:09:00.427Z,98836.34
2023-03-03T14:12:29.608Z,98843.25
2023-03-03T14:15:45.062Z,98835.91
2023-03-03T14:18:54.562Z,98832.81
2023-03-03T14:22:16.236Z,98840.94
2023-03-03T14:25:18.094Z,98832.34
2023-03-03T14:28:21.492Z,98842.44
2023-03-03T14:31:27.023Z,98837.06
2023-03-03T14:34:37.034Z,98836.22
2023-03-03T14:37:46.261Z,98834.34
2023-03-03T14:40:47.968Z,98827.47
2023-03-03T14:44:05.991Z,98835.88
2023-03-03T14:47:10.476Z,98834.97
2023-03-03T14:50:29.820Z,98836.13
2023-03-03T14:53:38.663Z,98841.53
2023-03-03T14:56:40.741Z,98832.00
2023-03-03T15:00:10.691Z,98832.81
2023-03-03T15:03:21.825Z,98838.06
2023-03-03T15:06:36.848Z,98836.19
2023-03-03T15:09:43.183Z,98832.66
2023-03-03T15:12:45.003Z,98830.97
2023-03-03T15:15:52.633Z,98826.81
2023-03-03T15:19:30.849Z,98826.84
2023-03-03T15:22:51.621Z,98827.75
2023-03-03T15:26:00.802Z,98828.88
2023-03-03T15:29:12.682Z,98827.34
2023-03-03T15:32:19.343Z,98824.81
2023-03-03T15:35:26.615Z,98830.00
2023-03-03T15:38:35.580Z,98829.94
2023-03-03T15:42:02.366Z,98823.00
2023-03-03T15:45:37.610Z,98829.97
2023-03-03T15:48:52.121Z,98830.66
2023-03-03T15:52:03.683Z,98830.84
2023-03-03T15:55:11.677Z,98829.75
2023-03-03T15:58:33.951Z,98826.69
2023-03-03T16:01:40.053Z,98830.13
2023-03-03T16:04:49.858Z,98828.44
2023-03-03T16:08:13.871Z,98836.09
2023-03-03T16:11:21.914Z,98831.75
2023-03-03T16:14:51.676Z,98830.03
2023-03-03T16:18:11.879Z,98834.28
2023-03-03T16:21:47.969Z,98835.06
2023-03-03T16:25:24.942Z,98832.38
2023-03-03T16:28:42.927Z,98836.56
2023-03-03T16:31:50.005Z,98838.25
2023-03-03T16:35:14.540Z,98852.16
2023-03-03T16:38:27.392Z,98846.63
2023-03-03T16:41:42.950Z,98852.75
2023-03-03T16:45:09.409Z,98853.78
2023-03-03T16:48:13.809Z,98856.53
2023-03-03T16:51:30.710Z,98859.06
2023-03-03T16:54:54.353Z,98861.81
2023-03-03T16:58:12.851Z,98861.59
2023-03-03T17:01:35.676Z,98868.28
2023-03-03T17:04:40.010Z,98864.84
2023-03-03T17:08:01.720Z,98870.44
2023-03-03T17:11:21.872Z,98880.88
2023-03-03T17:14:53.081Z,98887.09
2023-03-03T17:18:27.477Z,98890.13
2023-03-03T17:22:06.687Z,98887.16
2023-03-03T17:25:21.416Z,98891.09
2023-03-03T17:28:30.488Z,98899.38
2023-03-03T17:32:00.018Z,98900.97
2023-03-03T17:35:20.451Z,98900.59
2023-03-03T17:39:00.053Z,98911.28
2023-03-03T17:42:10.620Z,98915.31
2023-03-03T17:45:15.976Z,98920.59
2023-03-03T17:48:23.550Z,98916.84
2023-03-03T17:51:32.784Z,98921.03
2023-03-03T17:54:37.969Z,98923.19
2023-03-03T17:58:02.260Z,98932.31
2023-03-03T18:01:07.136Z,98940.66
2023-03-03T18:04:11.683Z,98941.16
2023-03-03T18:07:22.199Z,98935.47
2023-03-03T18:10:43.049Z,98943.81
2023-03-03T18:14:07.625Z,98936.09
2023-03-03T18:17:45.595Z,98939.16
2023-03-03T18:21:02.134Z,98936.59
2023-03-03T18:24:25.476Z,98942.44
2023-03-03T18:27:34.870Z,98937.97
2023-03-03T18:30:58.471Z,98946.19
2023-03-03T18:34:08.609Z,98944.88
2023-03-03T18:37:37.020Z,98942.81
2023-03-03T18:40:48.250Z,98942.44
2023-03-03T18:43:52.669Z,98942.03
2023-03-03T18:46:54.542Z,98945.25
2023-03-03T18:50:15.739Z,98946.16
2023-03-03T18:53:29.939Z,98946.72
2023-03-03T18:56:50.689Z,98946.81
2023-03-03T18:59:58.332Z,98941.94
2023-03-03T19:02:59.938Z,98934.66
2023-03-03T19:06:02.560Z,98939.81
2023-03-03T19:09:05.740Z,98935.50
2023-03-03T19:12:11.064Z,98930.22
2023-03-03T19:15:35.986Z,98929.13
2023-03-03T19:19:04.059Z,98931.19
2023-03-03T19:22:24.587Z,98940.31
2023-03-03T19:25:27.460Z,98936.25
2023-03-03T19:28:41.250Z,98940.19
2023-03-03T19:32:04.620Z,98934.25
2023-03-03T19:35:27.666Z,98938.53
2023-03-03T19:38:32.267Z,98940.75
2023-03-03T19:42:01.648Z,98942.72
2023-03-03T19:45:06.220Z,98944.91
2023-03-03T19:48:33.738Z,98942.56
2023-03-03T19:51:41.162Z,98942.78
2023-03-03T19:54:51.620Z,98940.22
2023-03-03T19:58:18.378Z,98940.09
2023-03-03T20:01:51.971Z,98939.41
2023-03-03T20:05:17.890Z,98943.66
2023-03-03T20:08:34.406Z,98938.63
2023-03-03T20:11:48.033Z,98943.50
2023-03-03T20:15:06.358Z,98949.75
2023-03-03T20:18:32.678Z,98955.34
2023-03-03T20:21:49.221Z,98953.09
2023-03-03T20:25:11.382Z,98968.56
2023-03-03T20:28:32.958Z,98958.03
2023-03-03T20:31:43.786Z,98958.28
2023-03-03T20:35:04.039Z,98963.34
2023-03-03T20:38:17.983Z,98963.50
2023-03-03T20:41:42.840Z,98960.59
2023-03-03T20:44:59.382Z,98963.16
2023-03-03T20:48:16.556Z,98957.34
2023-03-03T20:51:31.889Z,98962.34
2023-03-03T20:54:37.041Z,98962.91
2023-03-03T20:57:59.766Z,98963.50
2023-03-03T21:01:07.355Z,98961.56
2023-03-03T21:04:38.567Z,98957.00
2023-03-03T21:07:56.524Z,98959.63
2023-03-03T21:10:58.585Z,98963.06
2023-03-03T21:14:00.962Z,98963.69
2023-03-03T21:17:23.938Z,98958.91
2023-03-03T21:20:32.736Z,98960.47
2023-03-03T21:23:34.272Z,98957.00
2023-03-03T21:26:58.011Z,98967.22
2023-03-03T21:30:12.377Z,98964.91
2023-03-03T21:33:43.824Z,98963.47
2023-03-03T21:36:47.120Z,98958.47
2023-03-03T21:39:50.719Z,98956.56
2023-03-03T21:42:54.233Z,98951.44
2023-03-03T21:45:55.788Z,98946.97
2023-03-03T21:48:57.297Z,98948.59
2023-03-03T21:51:58.875Z,98941.38
2023-03-03T21:55:00.386Z,98934.75
2023-03-03T21:58:01.955Z,98944.72
2023-03-03T22:01:07.143Z,98934.78
2023-03-03T22:04:08.627Z,98947.28
2023-03-03T22:07:12.436Z,98945.59
2023-03-03T22:10:13.952Z,98956.41
2023-03-03T22:13:16.305Z,98954.34
2023-03-03T22:16:17.916Z,98955.16
2023-03-03T22:19:19.446Z,98950.69
2023-03-03T22:22:20.911Z,98953.69
2023-03-03T22:25:22.469Z,98960.56
2023-03-03T22:28:24.266Z,98963.13
2023-03-03T22:31:25.802Z,98965.75
2023-03-03T22:34:27.312Z,98964.31
2023-03-03T22:37:28.812Z,98966.50
2023-03-03T22:40:30.429Z,98966.78
2023-03-03T22:43:31.941Z,98966.50
2023-03-03T22:46:33.587Z,98968.72
2023-03-03T22:49:35.148Z,98973.63
2023-03-03T22:52:36.671Z,98977.47
2023-03-03T22:55:38.192Z,98976.22
2023-03-03T22:58:39.687Z,98978.56
2023-03-03T23:01:41.171Z,98973.22
2023-03-03T23:04:42.697Z,98962.31
2023-03-03T23:07:44.191Z,98962.97
2023-03-03T23:10:46.000Z,98959.88
2023-03-03T23:13:47.492Z,98959.31
2023-03-03T23:16:49.102Z,98951.63
2023-03-03T23:19:50.649Z,98960.13
2023-03-03T23:22:52.296Z,98951.63
2023-03-03T23:25:53.890Z,98955.00
2023-03-03T23:28:55.396Z,98954.72
2023-03-03T23:31:56.932Z,98959.00
2023-03-03T23:34:58.449Z,98960.97
2023-03-03T23:38:00.031Z,98963.06
2023-03-03T23:41:01.563Z,98961.31
2023-03-03T23:44:03.032Z,98961.81
2023-03-03T23:47:05.158Z,98958.31
2023-03-03T23:50:07.120Z,98960.63
2023-03-03T23:53:08.682Z,98958.84
2023-03-03T23:56:10.205Z,98945.31
2023-03-03T23:59:11.660Z,98956.03
